sensor_id;sensor_type;location;lat;lon;timestamp;pressure;altitude;pressure_sealevel;temperature;humidity
84714;BME280;74938;42.658;23.248;2024-02-21T00:00:35;94658.34;;;5.06;72.84
84714;BME280;74938;42.658;23.248;2024-02-21T00:03:03;94652.78;;;5.10;72.72
84714;BME280;74938;42.658;23.248;2024-02-21T00:05:30;94647.66;;;5.10;72.67
84714;BME280;74938;42.658;23.248;2024-02-21T00:07:55;94656.22;;;5.19;71.61
84714;BME280;74938;42.658;23.248;2024-02-21T00:10:20;94650.66;;;5.06;72.93
84714;BME280;74938;42.658;23.248;2024-02-21T00:12:46;94649.28;;;5.11;72.48
84714;BME280;74938;42.658;23.248;2024-02-21T00:15:11;94651.75;;;5.03;72.42
84714;BME280;74938;42.658;23.248;2024-02-21T00:17:37;94645.50;;;4.98;72.96
84714;BME280;74938;42.658;23.248;2024-02-21T00:20:02;94643.50;;;5.09;72.89
84714;BME280;74938;42.658;23.248;2024-02-21T00:22:28;94644.50;;;5.16;74.10
84714;BME280;74938;42.658;23.248;2024-02-21T00:24:56;94642.00;;;4.81;73.80
84714;BME280;74938;42.658;23.248;2024-02-21T00:27:23;94640.25;;;5.07;73.32
84714;BME280;74938;42.658;23.248;2024-02-21T00:29:48;94641.72;;;5.10;72.71
84714;BME280;74938;42.658;23.248;2024-02-21T00:32:14;94643.59;;;5.00;73.65
84714;BME280;74938;42.658;23.248;2024-02-21T00:34:39;94645.66;;;4.78;74.21
84714;BME280;74938;42.658;23.248;2024-02-21T00:37:05;94643.75;;;4.80;74.01
84714;BME280;74938;42.658;23.248;2024-02-21T00:39:30;94642.06;;;4.71;74.37
84714;BME280;74938;42.658;23.248;2024-02-21T00:41:56;94642.78;;;4.99;74.11
84714;BME280;74938;42.658;23.248;2024-02-21T00:44:21;94633.94;;;4.94;73.82
84714;BME280;74938;42.658;23.248;2024-02-21T00:46:47;94630.97;;;5.06;73.70
84714;BME280;74938;42.658;23.248;2024-02-21T00:49:12;94632.13;;;5.12;73.29
84714;BME280;74938;42.658;23.248;2024-02-21T00:51:38;94633.38;;;5.08;74.13
84714;BME280;74938;42.658;23.248;2024-02-21T00:54:03;94622.91;;;5.19;72.75
84714;BME280;74938;42.658;23.248;2024-02-21T00:56:28;94619.84;;;5.15;72.29
84714;BME280;74938;42.658;23.248;2024-02-21T00:58:55;94624.34;;;5.47;72.34
84714;BME280;74938;42.658;23.248;2024-02-21T01:01:26;94621.56;;;5.41;73.03
84714;BME280;74938;42.658;23.248;2024-02-21T01:03:52;94614.09;;;5.47;72.03
84714;BME280;74938;42.658;23.248;2024-02-21T01:06:20;94613.34;;;5.29;72.81
84714;BME280;74938;42.658;23.248;2024-02-21T01:08:49;94612.13;;;5.41;72.70
84714;BME280;74938;42.658;23.248;2024-02-21T01:11:15;94608.72;;;5.33;71.12
84714;BME280;74938;42.658;23.248;2024-02-21T01:13:41;94602.25;;;4.95;72.54
84714;BME280;74938;42.658;23.248;2024-02-21T01:16:06;94613.75;;;5.16;71.25
84714;BME280;74938;42.658;23.248;2024-02-21T01:18:37;94602.09;;;5.22;72.82
84714;BME280;74938;42.658;23.248;2024-02-21T01:21:02;94603.25;;;5.28;72.06
84714;BME280;74938;42.658;23.248;2024-02-21T01:23:28;94610.44;;;5.24;70.94
84714;BME280;74938;42.658;23.248;2024-02-21T01:25:53;94608.97;;;5.21;70.52
84714;BME280;74938;42.658;23.248;2024-02-21T01:28:20;94600.44;;;4.87;73.06
84714;BME280;74938;42.658;23.248;2024-02-21T01:30:45;94602.28;;;5.03;71.93
84714;BME280;74938;42.658;23.248;2024-02-21T01:33:11;94602.59;;;5.00;72.02
84714;BME280;74938;42.658;23.248;2024-02-21T01:35:36;94598.44;;;4.99;72.47
84714;BME280;74938;42.658;23.248;2024-02-21T01:38:02;94595.53;;;5.19;70.98
84714;BME280;74938;42.658;23.248;2024-02-21T01:40:27;94600.09;;;5.08;71.52
84714;BME280;74938;42.658;23.248;2024-02-21T01:42:55;94597.16;;;5.03;71.03
84714;BME280;74938;42.658;23.248;2024-02-21T01:45:21;94588.19;;;4.99;71.42
84714;BME280;74938;42.658;23.248;2024-02-21T01:47:47;94588.94;;;4.91;70.92
84714;BME280;74938;42.658;23.248;2024-02-21T01:50:14;94593.31;;;4.99;71.88
84714;BME280;74938;42.658;23.248;2024-02-21T01:52:41;94588.84;;;5.01;71.52
84714;BME280;74938;42.658;23.248;2024-02-21T01:55:07;94577.00;;;5.00;72.41
84714;BME280;74938;42.658;23.248;2024-02-21T01:57:34;94593.66;;;5.04;71.26
84714;BME280;74938;42.658;23.248;2024-02-21T01:59:59;94580.81;;;4.96;70.65
84714;BME280;74938;42.658;23.248;2024-02-21T02:02:25;94582.72;;;4.94;71.68
84714;BME280;74938;42.658;23.248;2024-02-21T02:04:51;94588.25;;;4.81;72.38
84714;BME280;74938;42.658;23.248;2024-02-21T02:07:17;94587.28;;;5.08;71.33
84714;BME280;74938;42.658;23.248;2024-02-21T02:09:42;94590.84;;;5.15;71.18
84714;BME280;74938;42.658;23.248;2024-02-21T02:12:08;94590.94;;;5.05;71.11
84714;BME280;74938;42.658;23.248;2024-02-21T02:14:34;94581.78;;;5.03;71.34
84714;BME280;74938;42.658;23.248;2024-02-21T02:16:59;94581.06;;;5.10;70.85
84714;BME280;74938;42.658;23.248;2024-02-21T02:19:24;94565.53;;;5.12;71.61
84714;BME280;74938;42.658;23.248;2024-02-21T02:21:54;94570.94;;;5.09;70.24
84714;BME280;74938;42.658;23.248;2024-02-21T02:24:23;94572.13;;;5.14;69.94
84714;BME280;74938;42.658;23.248;2024-02-21T02:26:49;94572.09;;;4.88;71.01
84714;BME280;74938;42.658;23.248;2024-02-21T02:29:15;94572.16;;;4.97;71.24
84714;BME280;74938;42.658;23.248;2024-02-21T02:31:41;94565.94;;;4.73;71.86
84714;BME280;74938;42.658;23.248;2024-02-21T02:34:07;94560.47;;;4.94;70.67
84714;BME280;74938;42.658;23.248;2024-02-21T02:36:32;94563.63;;;4.88;71.47
84714;BME280;74938;42.658;23.248;2024-02-21T02:38:58;94553.09;;;4.91;70.30
84714;BME280;74938;42.658;23.248;2024-02-21T02:41:24;94557.53;;;4.89;71.66
84714;BME280;74938;42.658;23.248;2024-02-21T02:43:49;94554.81;;;4.82;70.28
84714;BME280;74938;42.658;23.248;2024-02-21T02:46:15;94551.53;;;4.72;71.99
84714;BME280;74938;42.658;23.248;2024-02-21T02:48:41;94557.75;;;4.96;70.13
84714;BME280;74938;42.658;23.248;2024-02-21T02:51:06;94558.91;;;5.01;71.07
84714;BME280;74938;42.658;23.248;2024-02-21T02:53:31;94573.22;;;4.86;70.31
84714;BME280;74938;42.658;23.248;2024-02-21T02:55:57;94569.44;;;4.72;72.04
84714;BME280;74938;42.658;23.248;2024-02-21T02:58:23;94575.75;;;4.86;71.55
84714;BME280;74938;42.658;23.248;2024-02-21T03:00:48;94574.16;;;5.11;70.74
84714;BME280;74938;42.658;23.248;2024-02-21T03:03:13;94560.81;;;4.99;70.67
84714;BME280;74938;42.658;23.248;2024-02-21T03:05:39;94571.41;;;4.78;72.79
84714;BME280;74938;42.658;23.248;2024-02-21T03:08:04;94566.28;;;4.78;72.38
84714;BME280;74938;42.658;23.248;2024-02-21T03:10:32;94569.25;;;4.92;70.70
84714;BME280;74938;42.658;23.248;2024-02-21T03:12:58;94572.34;;;5.03;70.69
84714;BME280;74938;42.658;23.248;2024-02-21T03:15:24;94575.28;;;5.08;70.64
84714;BME280;74938;42.658;23.248;2024-02-21T03:17:49;94570.84;;;4.93;70.72
84714;BME280;74938;42.658;23.248;2024-02-21T03:20:15;94576.44;;;4.88;70.80
84714;BME280;74938;42.658;23.248;2024-02-21T03:22:41;94576.91;;;4.83;72.69
84714;BME280;74938;42.658;23.248;2024-02-21T03:25:07;94579.88;;;5.05;71.37
84714;BME280;74938;42.658;23.248;2024-02-21T03:27:33;94587.84;;;4.94;70.20
84714;BME280;74938;42.658;23.248;2024-02-21T03:29:58;94585.34;;;5.02;70.82
84714;BME280;74938;42.658;23.248;2024-02-21T03:32:24;94577.25;;;5.14;70.69
84714;BME280;74938;42.658;23.248;2024-02-21T03:34:49;94582.78;;;5.02;69.82
84714;BME280;74938;42.658;23.248;2024-02-21T03:37:15;94582.34;;;4.88;71.64
84714;BME280;74938;42.658;23.248;2024-02-21T03:39:40;94587.44;;;4.80;71.09
84714;BME280;74938;42.658;23.248;2024-02-21T03:42:06;94587.22;;;4.74;71.51
84714;BME280;74938;42.658;23.248;2024-02-21T03:44:31;94594.66;;;4.85;72.51
84714;BME280;74938;42.658;23.248;2024-02-21T03:46:58;94598.06;;;4.94;71.29
84714;BME280;74938;42.658;23.248;2024-02-21T03:49:23;94592.19;;;4.75;70.92
84714;BME280;74938;42.658;23.248;2024-02-21T03:51:49;94594.16;;;4.81;72.51
84714;BME280;74938;42.658;23.248;2024-02-21T03:54:14;94593.41;;;4.89;70.91
84714;BME280;74938;42.658;23.248;2024-02-21T03:56:39;94594.16;;;4.81;70.90
84714;BME280;74938;42.658;23.248;2024-02-21T03:59:06;94594.50;;;4.86;70.29
84714;BME280;74938;42.658;23.248;2024-02-21T04:01:31;94587.19;;;4.92;71.71
84714;BME280;74938;42.658;23.248;2024-02-21T04:03:57;94589.75;;;4.92;71.50
84714;BME280;74938;42.658;23.248;2024-02-21T04:06:22;94579.13;;;4.86;71.28
84714;BME280;74938;42.658;23.248;2024-02-21T04:08:47;94592.59;;;4.88;71.43
84714;BME280;74938;42.658;23.248;2024-02-21T04:11:13;94593.53;;;4.87;71.60
84714;BME280;74938;42.658;23.248;2024-02-21T04:13:38;94594.19;;;4.89;71.39
84714;BME280;74938;42.658;23.248;2024-02-21T04:16:04;94594.84;;;4.92;70.41
84714;BME280;74938;42.658;23.248;2024-02-21T04:18:31;94593.06;;;5.10;70.18
84714;BME280;74938;42.658;23.248;2024-02-21T04:20:56;94589.53;;;5.11;70.85
84714;BME280;74938;42.658;23.248;2024-02-21T04:23:21;94583.88;;;4.99;70.58
84714;BME280;74938;42.658;23.248;2024-02-21T04:25:47;94590.03;;;4.88;69.71
84714;BME280;74938;42.658;23.248;2024-02-21T04:28:12;94590.69;;;4.90;70.09
84714;BME280;74938;42.658;23.248;2024-02-21T04:30:37;94587.03;;;4.93;70.94
84714;BME280;74938;42.658;23.248;2024-02-21T04:33:03;94595.06;;;4.54;70.83
84714;BME280;74938;42.658;23.248;2024-02-21T04:35:28;94585.56;;;4.65;72.03
84714;BME280;74938;42.658;23.248;2024-02-21T04:37:54;94586.94;;;4.59;70.91
84714;BME280;74938;42.658;23.248;2024-02-21T04:40:20;94589.66;;;4.58;70.72
84714;BME280;74938;42.658;23.248;2024-02-21T04:42:45;94590.91;;;4.36;71.14
84714;BME280;74938;42.658;23.248;2024-02-21T04:45:10;94590.56;;;4.48;71.46
84714;BME280;74938;42.658;23.248;2024-02-21T04:47:36;94583.59;;;4.23;71.12
84714;BME280;74938;42.658;23.248;2024-02-21T04:50:01;94591.06;;;4.34;72.43
84714;BME280;74938;42.658;23.248;2024-02-21T04:52:27;94589.22;;;4.09;72.95
84714;BME280;74938;42.658;23.248;2024-02-21T04:54:52;94595.59;;;4.23;72.72
84714;BME280;74938;42.658;23.248;2024-02-21T04:57:17;94603.78;;;4.26;71.62
84714;BME280;74938;42.658;23.248;2024-02-21T04:59:46;94591.56;;;4.20;72.03
84714;BME280;74938;42.658;23.248;2024-02-21T05:02:14;94598.72;;;4.16;72.00
84714;BME280;74938;42.658;23.248;2024-02-21T05:04:39;94598.22;;;4.13;72.72
84714;BME280;74938;42.658;23.248;2024-02-21T05:07:06;94594.13;;;4.20;72.21
84714;BME280;74938;42.658;23.248;2024-02-21T05:09:32;94597.91;;;4.16;70.99
84714;BME280;74938;42.658;23.248;2024-02-21T05:11:57;94596.38;;;4.05;73.28
84714;BME280;74938;42.658;23.248;2024-02-21T05:14:25;94604.47;;;4.01;73.13
84714;BME280;74938;42.658;23.248;2024-02-21T05:16:52;94609.22;;;3.78;73.35
84714;BME280;74938;42.658;23.248;2024-02-21T05:19:17;94615.66;;;4.00;72.99
84714;BME280;74938;42.658;23.248;2024-02-21T05:21:43;94608.50;;;4.03;73.38
84714;BME280;74938;42.658;23.248;2024-02-21T05:24:08;94611.16;;;4.11;72.07
84714;BME280;74938;42.658;23.248;2024-02-21T05:26:33;94617.94;;;4.20;73.12
84714;BME280;74938;42.658;23.248;2024-02-21T05:28:59;94610.28;;;4.20;73.02
84714;BME280;74938;42.658;23.248;2024-02-21T05:31:25;94615.81;;;4.16;73.67
84714;BME280;74938;42.658;23.248;2024-02-21T05:33:50;94613.78;;;4.19;72.78
84714;BME280;74938;42.658;23.248;2024-02-21T05:36:16;94609.72;;;4.27;73.37
84714;BME280;74938;42.658;23.248;2024-02-21T05:38:41;94606.91;;;4.38;71.50
84714;BME280;74938;42.658;23.248;2024-02-21T05:41:06;94617.81;;;4.40;71.02
84714;BME280;74938;42.658;23.248;2024-02-21T05:43:32;94606.75;;;4.57;72.86
84714;BME280;74938;42.658;23.248;2024-02-21T05:45:57;94616.63;;;4.52;71.85
84714;BME280;74938;42.658;23.248;2024-02-21T05:48:23;94616.72;;;4.60;71.84
84714;BME280;74938;42.658;23.248;2024-02-21T05:50:49;94616.44;;;4.63;70.96
84714;BME280;74938;42.658;23.248;2024-02-21T05:53:14;94614.31;;;4.59;71.01
84714;BME280;74938;42.658;23.248;2024-02-21T05:55:40;94622.88;;;4.67;70.75
84714;BME280;74938;42.658;23.248;2024-02-21T05:58:06;94626.06;;;4.69;70.06
84714;BME280;74938;42.658;23.248;2024-02-21T06:00:32;94624.81;;;4.73;69.98
84714;BME280;74938;42.658;23.248;2024-02-21T06:02:57;94626.63;;;4.99;70.97
84714;BME280;74938;42.658;23.248;2024-02-21T06:05:23;94618.16;;;5.06;69.12
84714;BME280;74938;42.658;23.248;2024-02-21T06:07:49;94628.84;;;5.19;68.07
84714;BME280;74938;42.658;23.248;2024-02-21T06:10:14;94631.34;;;5.11;68.99
84714;BME280;74938;42.658;23.248;2024-02-21T06:12:40;94635.41;;;5.22;68.83
84714;BME280;74938;42.658;23.248;2024-02-21T06:15:05;94644.41;;;5.26;68.66
84714;BME280;74938;42.658;23.248;2024-02-21T06:17:31;94635.25;;;5.23;68.50
84714;BME280;74938;42.658;23.248;2024-02-21T06:19:56;94640.78;;;5.11;69.38
84714;BME280;74938;42.658;23.248;2024-02-21T06:22:22;94639.19;;;5.36;68.75
84714;BME280;74938;42.658;23.248;2024-02-21T06:24:47;94643.97;;;5.39;69.33
84714;BME280;74938;42.658;23.248;2024-02-21T06:27:12;94650.34;;;5.60;67.58
84714;BME280;74938;42.658;23.248;2024-02-21T06:29:40;94648.91;;;5.58;69.39
84714;BME280;74938;42.658;23.248;2024-02-21T06:32:05;94649.41;;;5.62;66.86
84714;BME280;74938;42.658;23.248;2024-02-21T06:34:31;94657.59;;;5.65;68.33
84714;BME280;74938;42.658;23.248;2024-02-21T06:36:57;94648.81;;;5.76;67.76
84714;BME280;74938;42.658;23.248;2024-02-21T06:39:22;94657.53;;;5.83;66.61
84714;BME280;74938;42.658;23.248;2024-02-21T06:41:48;94647.03;;;6.02;67.46
84714;BME280;74938;42.658;23.248;2024-02-21T06:44:15;94667.25;;;6.05;66.14
84714;BME280;74938;42.658;23.248;2024-02-21T06:46:41;94667.50;;;6.36;65.08
84714;BME280;74938;42.658;23.248;2024-02-21T06:49:06;94662.81;;;6.23;65.31
84714;BME280;74938;42.658;23.248;2024-02-21T06:51:31;94671.63;;;6.21;65.64
84714;BME280;74938;42.658;23.248;2024-02-21T06:53:57;94676.44;;;6.16;65.82
84714;BME280;74938;42.658;23.248;2024-02-21T06:56:23;94669.56;;;6.33;65.72
84714;BME280;74938;42.658;23.248;2024-02-21T06:58:56;94671.00;;;6.27;65.01
84714;BME280;74938;42.658;23.248;2024-02-21T07:01:22;94665.41;;;6.32;65.66
84714;BME280;74938;42.658;23.248;2024-02-21T07:03:47;94674.41;;;6.36;65.89
84714;BME280;74938;42.658;23.248;2024-02-21T07:06:13;94670.28;;;6.09;67.08
84714;BME280;74938;42.658;23.248;2024-02-21T07:08:38;94675.22;;;6.44;64.96
84714;BME280;74938;42.658;23.248;2024-02-21T07:11:04;94681.78;;;6.39;66.33
84714;BME280;74938;42.658;23.248;2024-02-21T07:13:29;94678.16;;;6.57;65.75
84714;BME280;74938;42.658;23.248;2024-02-21T07:15:55;94680.66;;;6.33;65.26
84714;BME280;74938;42.658;23.248;2024-02-21T07:18:20;94682.59;;;6.39;65.81
84714;BME280;74938;42.658;23.248;2024-02-21T07:20:46;94684.75;;;6.10;66.84
84714;BME280;74938;42.658;23.248;2024-02-21T07:23:11;94681.66;;;6.40;65.43
84714;BME280;74938;42.658;23.248;2024-02-21T07:25:36;94683.41;;;6.48;65.57
84714;BME280;74938;42.658;23.248;2024-02-21T07:28:02;94677.81;;;6.52;65.95
84714;BME280;74938;42.658;23.248;2024-02-21T07:30:28;94684.41;;;6.55;64.65
84714;BME280;74938;42.658;23.248;2024-02-21T07:32:53;94681.50;;;6.50;66.40
84714;BME280;74938;42.658;23.248;2024-02-21T07:35:18;94678.28;;;6.40;66.84
84714;BME280;74938;42.658;23.248;2024-02-21T07:37:44;94678.50;;;6.87;64.17
84714;BME280;74938;42.658;23.248;2024-02-21T07:40:16;94678.63;;;6.77;64.64
84714;BME280;74938;42.658;23.248;2024-02-21T07:42:42;94686.69;;;6.74;65.09
84714;BME280;74938;42.658;23.248;2024-02-21T07:45:08;94682.66;;;6.80;65.23
84714;BME280;74938;42.658;23.248;2024-02-21T07:47:34;94686.34;;;6.93;64.32
84714;BME280;74938;42.658;23.248;2024-02-21T07:49:59;94676.88;;;7.02;63.61
84714;BME280;74938;42.658;23.248;2024-02-21T07:52:25;94678.97;;;6.98;63.81
84714;BME280;74938;42.658;23.248;2024-02-21T07:54:50;94667.72;;;6.83;64.04
84714;BME280;74938;42.658;23.248;2024-02-21T07:57:16;94674.31;;;7.18;63.62
84714;BME280;74938;42.658;23.248;2024-02-21T07:59:41;94670.28;;;7.16;64.39
84714;BME280;74938;42.658;23.248;2024-02-21T08:02:07;94669.81;;;7.12;63.37
84714;BME280;74938;42.658;23.248;2024-02-21T08:04:33;94673.50;;;7.02;63.94
84714;BME280;74938;42.658;23.248;2024-02-21T08:06:58;94673.03;;;6.98;65.00
84714;BME280;74938;42.658;23.248;2024-02-21T08:09:29;94676.06;;;7.42;63.02
84714;BME280;74938;42.658;23.248;2024-02-21T08:11:55;94672.00;;;7.56;62.72
84714;BME280;74938;42.658;23.248;2024-02-21T08:14:20;94671.19;;;7.63;62.01
84714;BME280;74938;42.658;23.248;2024-02-21T08:16:46;94672.72;;;7.89;61.04
84714;BME280;74938;42.658;23.248;2024-02-21T08:19:11;94662.59;;;8.26;61.14
84714;BME280;74938;42.658;23.248;2024-02-21T08:21:37;94668.81;;;8.48;59.89
84714;BME280;74938;42.658;23.248;2024-02-21T08:24:03;94664.47;;;8.41;59.65
84714;BME280;74938;42.658;23.248;2024-02-21T08:26:28;94662.56;;;8.88;57.83
84714;BME280;74938;42.658;23.248;2024-02-21T08:28:56;94668.06;;;9.08;57.05
84714;BME280;74938;42.658;23.248;2024-02-21T08:31:25;94673.81;;;8.95;56.47
84714;BME280;74938;42.658;23.248;2024-02-21T08:33:56;94659.13;;;8.73;56.42
84714;BME280;74938;42.658;23.248;2024-02-21T08:36:27;94665.78;;;8.90;56.36
84714;BME280;74938;42.658;23.248;2024-02-21T08:38:52;94666.41;;;9.15;54.23
84714;BME280;74938;42.658;23.248;2024-02-21T08:41:18;94675.72;;;8.70;56.71
84714;BME280;74938;42.658;23.248;2024-02-21T08:43:43;94667.84;;;8.95;56.10
84714;BME280;74938;42.658;23.248;2024-02-21T08:46:08;94677.47;;;8.78;57.68
84714;BME280;74938;42.658;23.248;2024-02-21T08:48:34;94666.94;;;8.65;55.54
84714;BME280;74938;42.658;23.248;2024-02-21T08:50:59;94661.94;;;8.63;55.69
84714;BME280;74938;42.658;23.248;2024-02-21T08:53:24;94672.47;;;8.77;56.68
84714;BME280;74938;42.658;23.248;2024-02-21T08:55:50;94678.94;;;8.72;55.77
84714;BME280;74938;42.658;23.248;2024-02-21T08:58:15;94678.31;;;8.48;57.43
84714;BME280;74938;42.658;23.248;2024-02-21T09:00:40;94661.03;;;8.79;56.97
84714;BME280;74938;42.658;23.248;2024-02-21T09:03:06;94677.44;;;9.01;55.65
84714;BME280;74938;42.658;23.248;2024-02-21T09:05:31;94679.75;;;8.73;56.24
84714;BME280;74938;42.658;23.248;2024-02-21T09:07:57;94662.78;;;9.01;56.78
84714;BME280;74938;42.658;23.248;2024-02-21T09:10:22;94679.56;;;9.20;55.22
84714;BME280;74938;42.658;23.248;2024-02-21T09:12:47;94678.53;;;9.06;55.67
84714;BME280;74938;42.658;23.248;2024-02-21T09:15:13;94688.03;;;9.29;56.41
84714;BME280;74938;42.658;23.248;2024-02-21T09:17:38;94690.94;;;9.49;55.21
84714;BME280;74938;42.658;23.248;2024-02-21T09:20:05;94682.06;;;9.66;53.77
84714;BME280;74938;42.658;23.248;2024-02-21T09:22:31;94676.16;;;9.20;54.52
84714;BME280;74938;42.658;23.248;2024-02-21T09:25:00;94682.31;;;9.19;54.20
84714;BME280;74938;42.658;23.248;2024-02-21T09:27:25;94678.50;;;9.15;55.35
84714;BME280;74938;42.658;23.248;2024-02-21T09:29:51;94677.44;;;9.01;55.42
84714;BME280;74938;42.658;23.248;2024-02-21T09:32:17;94682.50;;;8.94;55.03
84714;BME280;74938;42.658;23.248;2024-02-21T09:34:42;94680.16;;;9.45;55.16
84714;BME280;74938;42.658;23.248;2024-02-21T09:37:08;94675.81;;;9.60;54.02
84714;BME280;74938;42.658;23.248;2024-02-21T09:39:33;94673.88;;;9.25;53.26
84714;BME280;74938;42.658;23.248;2024-02-21T09:42:05;94679.38;;;9.22;54.75
84714;BME280;74938;42.658;23.248;2024-02-21T09:44:36;94678.72;;;9.05;55.03
84714;BME280;74938;42.658;23.248;2024-02-21T09:47:19;94685.00;;;9.25;55.05
84714;BME280;74938;42.658;23.248;2024-02-21T09:49:47;94679.84;;;9.25;54.67
84714;BME280;74938;42.658;23.248;2024-02-21T09:52:15;94682.22;;;9.12;56.05
84714;BME280;74938;42.658;23.248;2024-02-21T09:54:41;94674.00;;;9.08;56.60
84714;BME280;74938;42.658;23.248;2024-02-21T09:57:09;94674.34;;;9.05;56.66
84714;BME280;74938;42.658;23.248;2024-02-21T09:59:35;94678.16;;;9.18;55.03
84714;BME280;74938;42.658;23.248;2024-02-21T10:02:00;94677.34;;;9.17;54.03
84714;BME280;74938;42.658;23.248;2024-02-21T10:04:26;94673.97;;;9.17;53.54
84714;BME280;74938;42.658;23.248;2024-02-21T10:06:53;94674.56;;;9.19;54.31
84714;BME280;74938;42.658;23.248;2024-02-21T10:09:26;94672.63;;;9.73;52.43
84714;BME280;74938;42.658;23.248;2024-02-21T10:11:53;94668.91;;;9.38;52.75
84714;BME280;74938;42.658;23.248;2024-02-21T10:14:19;94671.00;;;9.72;52.50
84714;BME280;74938;42.658;23.248;2024-02-21T10:16:47;94662.09;;;9.45;52.17
84714;BME280;74938;42.658;23.248;2024-02-21T10:19:19;94666.94;;;9.63;51.57
84714;BME280;74938;42.658;23.248;2024-02-21T10:22:06;94656.16;;;9.59;51.72
84714;BME280;74938;42.658;23.248;2024-02-21T10:24:33;94654.66;;;9.65;52.62
84714;BME280;74938;42.658;23.248;2024-02-21T10:27:06;94654.13;;;9.99;51.24
84714;BME280;74938;42.658;23.248;2024-02-21T10:29:36;94650.63;;;9.92;52.28
84714;BME280;74938;42.658;23.248;2024-02-21T10:34:30;94639.59;;;9.54;51.14
84714;BME280;74938;42.658;23.248;2024-02-21T10:37:05;94628.56;;;9.45;51.85
84714;BME280;74938;42.658;23.248;2024-02-21T10:39:32;94623.94;;;9.55;50.70
84714;BME280;74938;42.658;23.248;2024-02-21T10:42:00;94623.03;;;9.77;52.41
84714;BME280;74938;42.658;23.248;2024-02-21T10:44:29;94617.81;;;9.86;50.28
84714;BME280;74938;42.658;23.248;2024-02-21T10:46:56;94614.31;;;9.93;50.55
84714;BME280;74938;42.658;23.248;2024-02-21T10:49:26;94605.06;;;9.99;51.59
84714;BME280;74938;42.658;23.248;2024-02-21T10:52:09;94601.00;;;10.11;50.75
84714;BME280;74938;42.658;23.248;2024-02-21T10:54:48;94596.72;;;10.33;50.53
84714;BME280;74938;42.658;23.248;2024-02-21T10:57:16;94588.47;;;10.44;49.52
84714;BME280;74938;42.658;23.248;2024-02-21T10:59:44;94584.31;;;10.64;47.42
84714;BME280;74938;42.658;23.248;2024-02-21T11:02:10;94589.78;;;10.55;48.61
84714;BME280;74938;42.658;23.248;2024-02-21T11:04:36;94579.34;;;10.27;50.06
84714;BME280;74938;42.658;23.248;2024-02-21T11:07:04;94588.44;;;10.08;50.20
84714;BME280;74938;42.658;23.248;2024-02-21T11:09:31;94581.09;;;9.90;49.86
84714;BME280;74938;42.658;23.248;2024-02-21T11:12:04;94570.53;;;9.85;50.25
84714;BME280;74938;42.658;23.248;2024-02-21T11:14:30;94577.72;;;9.90;49.39
84714;BME280;74938;42.658;23.248;2024-02-21T11:17:02;94579.88;;;9.57;50.66
84714;BME280;74938;42.658;23.248;2024-02-21T11:19:29;94584.59;;;9.53;51.31
84714;BME280;74938;42.658;23.248;2024-02-21T11:21:57;94580.50;;;9.59;49.98
84714;BME280;74938;42.658;23.248;2024-02-21T11:24:33;94585.75;;;9.80;48.19
84714;BME280;74938;42.658;23.248;2024-02-21T11:27:09;94575.50;;;9.72;48.58
84714;BME280;74938;42.658;23.248;2024-02-21T11:30:04;94577.94;;;9.59;48.47
84714;BME280;74938;42.658;23.248;2024-02-21T11:32:30;94573.56;;;9.30;48.18
84714;BME280;74938;42.658;23.248;2024-02-21T11:35:00;94568.59;;;9.43;49.94
84714;BME280;74938;42.658;23.248;2024-02-21T11:37:33;94568.56;;;9.72;50.26
84714;BME280;74938;42.658;23.248;2024-02-21T11:39:59;94569.28;;;9.37;51.01
84714;BME280;74938;42.658;23.248;2024-02-21T11:42:26;94566.72;;;9.37;51.09
84714;BME280;74938;42.658;23.248;2024-02-21T11:44:53;94563.34;;;9.51;50.03
84714;BME280;74938;42.658;23.248;2024-02-21T11:47:18;94566.00;;;9.43;50.92
84714;BME280;74938;42.658;23.248;2024-02-21T11:49:46;94561.38;;;9.53;50.34
84714;BME280;74938;42.658;23.248;2024-02-21T11:52:12;94560.22;;;9.26;51.28
84714;BME280;74938;42.658;23.248;2024-02-21T11:54:40;94550.25;;;9.08;50.25
84714;BME280;74938;42.658;23.248;2024-02-21T11:57:06;94545.16;;;9.00;50.27
84714;BME280;74938;42.658;23.248;2024-02-21T11:59:32;94547.84;;;9.22;50.51
84714;BME280;74938;42.658;23.248;2024-02-21T12:01:58;94553.34;;;9.04;51.23
84714;BME280;74938;42.658;23.248;2024-02-21T12:04:24;94539.84;;;9.02;50.51
84714;BME280;74938;42.658;23.248;2024-02-21T12:06:54;94541.81;;;9.15;51.34
84714;BME280;74938;42.658;23.248;2024-02-21T12:09:22;94544.94;;;9.25;50.11
84714;BME280;74938;42.658;23.248;2024-02-21T12:11:57;94542.16;;;9.12;51.41
84714;BME280;74938;42.658;23.248;2024-02-21T12:14:24;94539.66;;;9.18;51.95
84714;BME280;74938;42.658;23.248;2024-02-21T12:16:50;94543.16;;;9.40;50.91
84714;BME280;74938;42.658;23.248;2024-02-21T12:19:15;94542.16;;;9.12;51.63
84714;BME280;74938;42.658;23.248;2024-02-21T12:21:42;94539.41;;;9.28;51.80
84714;BME280;74938;42.658;23.248;2024-02-21T12:24:20;94535.41;;;9.11;52.03
84714;BME280;74938;42.658;23.248;2024-02-21T12:26:46;94531.91;;;8.89;52.70
84714;BME280;74938;42.658;23.248;2024-02-21T12:29:13;94520.72;;;8.96;52.92
84714;BME280;74938;42.658;23.248;2024-02-21T12:31:38;94531.03;;;8.82;52.69
84714;BME280;74938;42.658;23.248;2024-02-21T12:34:04;94531.69;;;8.61;53.41
84714;BME280;74938;42.658;23.248;2024-02-21T12:36:33;94529.19;;;8.67;53.77
84714;BME280;74938;42.658;23.248;2024-02-21T12:38:59;94527.22;;;8.55;54.04
84714;BME280;74938;42.658;23.248;2024-02-21T12:41:26;94527.19;;;8.78;53.27
84714;BME280;74938;42.658;23.248;2024-02-21T12:43:52;94529.03;;;8.69;54.23
84714;BME280;74938;42.658;23.248;2024-02-21T12:46:17;94516.09;;;8.77;54.17
84714;BME280;74938;42.658;23.248;2024-02-21T12:48:43;94525.44;;;8.93;54.00
84714;BME280;74938;42.658;23.248;2024-02-21T12:51:08;94512.03;;;8.97;53.75
84714;BME280;74938;42.658;23.248;2024-02-21T12:53:34;94518.25;;;9.18;53.15
84714;BME280;74938;42.658;23.248;2024-02-21T12:56:00;94514.16;;;9.08;53.56
84714;BME280;74938;42.658;23.248;2024-02-21T12:58:25;94511.94;;;9.20;51.86